Terminal Aerodrome Forecast
Issued by NWS Jackson, KY

Home | Current Version | Previous Version | Text Only | Print | Product List | Glossary On
Versions: 1 2 3 4 5 6 7 8 9 10 11 12 13 14 15
000
FTUS43 KJKL 010524
TAFLOZ
TAF
KLOZ 010524Z 0106/0206 VRB03KT P6SM VCTS BKN040CB OVC150
      TEMPO 0106/0109 1SM +SHRA BR SCT002 BKN010 OVC040
     FM010900 VRB03KT 6SM BR SCT040 BKN130
     FM011500 25008KT P6SM VCTS BKN040CB
     FM020000 VRB03KT P6SM VCTS BKN040CB=

USA.gov is the U.S. government's official web portal to all federal, state and local government web resources and services.